Time;durP1;ratioP1;P1;durP2;ratioP2;P2;SDS_P1;SDS_P2;PMS_P1;PMS_P2;Temp;Humidity;BMP_temperature;BMP_pressure;BME280_temperature;BME280_humidity;BME280_pressure;Samples;Min_cycle;Max_cycle;Signal;HPM_P1;HPM_P2
2022/04/08 00:01:34;;;;;;;7.53;4.25;;;10.30;99.90;;;;;;5067283;28;20247;-64
2022/04/08 00:04:00;;;;;;;5.25;3.83;;;10.30;99.90;;;;;;5073275;28;20274;-64
2022/04/08 00:06:27;;;;;;;8.88;6.75;;;10.30;99.90;;;;;;5073263;28;20229;-64
2022/04/08 00:08:54;;;;;;;8.32;5.35;;;10.20;99.90;;;;;;5073439;28;20217;-66
2022/04/08 00:11:21;;;;;;;20.88;15.27;;;10.20;99.90;;;;;;5073129;28;20236;-63
2022/04/08 00:13:51;;;;;;;12.70;8.85;;;10.20;99.90;;;;;;5073370;28;20224;-63
2022/04/08 00:16:18;;;;;;;14.95;10.00;;;10.30;99.90;;;;;;5073330;28;20243;-64
2022/04/08 00:18:47;;;;;;;38.83;27.60;;;10.30;99.90;;;;;;5073449;28;20216;-64
2022/04/08 00:21:14;;;;;;;18.30;12.50;;;10.40;99.90;;;;;;5073188;28;20232;-64
2022/04/08 00:23:42;;;;;;;6.68;4.40;;;10.40;99.90;;;;;;5073112;28;20231;-64
2022/04/08 00:26:09;;;;;;;8.80;5.80;;;10.40;99.90;;;;;;5073535;28;20293;-64
2022/04/08 00:28:36;;;;;;;6.53;4.82;;;10.50;99.90;;;;;;5072771;28;20694;-64
2022/04/08 00:31:04;;;;;;;9.27;8.35;;;10.50;99.90;;;;;;5073181;28;20306;-64
2022/04/08 00:33:32;;;;;;;14.00;9.52;;;10.50;99.90;;;;;;5072890;28;20737;-64
2022/04/08 00:36:03;;;;;;;11.32;8.60;;;10.40;99.90;;;;;;5073134;28;20223;-64
2022/04/08 00:38:30;;;;;;;22.63;15.52;;;10.40;99.90;;;;;;5070896;28;20307;-64
2022/04/08 00:40:57;;;;;;;4.30;3.38;;;10.30;99.90;;;;;;5069500;28;20228;-64
2022/04/08 00:43:36;;;;;;;11.55;8.02;;;10.30;99.90;;;;;;5072441;28;20228;-65
2022/04/08 00:46:04;;;;;;;15.75;9.88;;;10.30;99.90;;;;;;5059368;28;20284;-65
2022/04/08 00:48:31;;;;;;;5.63;5.05;;;10.40;99.90;;;;;;5072327;28;20220;-65
2022/04/08 00:51:00;;;;;;;5.25;4.35;;;10.40;99.90;;;;;;5072890;28;20248;-65
2022/04/08 00:53:28;;;;;;;25.58;18.70;;;10.40;99.90;;;;;;5067848;28;20236;-65
2022/04/08 00:55:55;;;;;;;10.00;7.00;;;10.40;99.90;;;;;;5071409;28;20462;-65
2022/04/08 00:58:23;;;;;;;4.18;2.70;;;10.40;99.90;;;;;;5072535;28;20227;-65
2022/04/08 01:00:50;;;;;;;11.45;8.95;;;10.20;99.90;;;;;;5071987;28;20243;-64
2022/04/08 01:03:17;;;;;;;7.95;4.78;;;10.30;99.90;;;;;;5063382;28;20216;-64
2022/04/08 01:05:44;;;;;;;9.32;6.15;;;10.30;99.90;;;;;;5066403;28;20221;-66
2022/04/08 01:08:14;;;;;;;7.38;5.68;;;10.20;99.90;;;;;;5071768;28;20223;-71
2022/04/08 01:10:41;;;;;;;7.82;5.50;;;10.20;99.90;;;;;;5069922;28;20224;-68
2022/04/08 01:13:08;;;;;;;4.07;3.42;;;10.30;99.90;;;;;;5071561;28;20242;-69
2022/04/08 01:15:35;;;;;;;4.25;3.85;;;10.30;99.90;;;;;;5071766;28;20254;-69
2022/04/08 01:18:05;;;;;;;28.23;18.70;;;10.20;99.90;;;;;;5072009;28;20228;-71
2022/04/08 01:20:32;;;;;;;18.02;13.70;;;10.20;99.90;;;;;;5071321;28;20326;-68
2022/04/08 01:22:59;;;;;;;10.65;8.27;;;10.20;99.90;;;;;;5071069;28;20217;-65
2022/04/08 01:25:27;;;;;;;8.55;5.13;;;10.20;99.90;;;;;;5072119;28;20696;-64
2022/04/08 01:27:54;;;;;;;10.57;7.18;;;10.20;99.90;;;;;;5071954;28;20331;-65
2022/04/08 01:30:21;;;;;;;10.43;8.52;;;10.20;99.90;;;;;;5071875;28;20223;-64
2022/04/08 01:32:47;;;;;;;11.80;8.48;;;10.20;99.90;;;;;;5071880;28;20219;-64
2022/04/08 01:35:14;;;;;;;5.90;5.07;;;10.20;99.90;;;;;;5071814;28;20228;-65
2022/04/08 01:37:41;;;;;;;6.18;5.35;;;10.30;99.90;;;;;;5069691;28;20212;-64
2022/04/08 01:40:09;;;;;;;7.30;4.95;;;10.20;99.90;;;;;;5072007;28;20228;-64
2022/04/08 01:42:37;;;;;;;5.32;2.78;;;10.20;99.90;;;;;;5071303;28;20223;-65
2022/04/08 01:45:05;;;;;;;8.52;5.75;;;10.20;99.90;;;;;;5062193;28;20230;-65
2022/04/08 01:47:32;;;;;;;9.85;6.68;;;10.20;99.90;;;;;;5069825;28;20219;-65
2022/04/08 01:49:59;;;;;;;15.30;11.10;;;10.20;99.90;;;;;;5071195;28;20227;-65
2022/04/08 01:52:25;;;;;;;7.20;2.55;;;10.20;99.90;;;;;;5071506;28;20228;-65
2022/04/08 01:54:52;;;;;;;10.43;6.68;;;10.20;99.90;;;;;;5072560;28;20215;-65
2022/04/08 01:57:23;;;;;;;20.80;14.55;;;10.20;99.90;;;;;;5074549;28;20230;-65
2022/04/08 01:59:55;;;;;;;7.55;5.63;;;10.20;99.90;;;;;;5068741;28;20227;-65
2022/04/08 02:02:21;;;;;;;9.85;6.60;;;10.30;99.90;;;;;;5062668;28;20584;-65
2022/04/08 02:04:48;;;;;;;17.25;9.18;;;10.30;99.90;;;;;;5075727;28;20246;-65
2022/04/08 02:07:15;;;;;;;10.60;8.48;;;10.30;99.90;;;;;;5075870;28;20239;-65
2022/04/08 02:09:42;;;;;;;15.82;9.75;;;10.30;99.90;;;;;;5075547;28;20232;-65
2022/04/08 02:12:10;;;;;;;14.60;9.25;;;10.40;99.90;;;;;;5075868;28;20235;-65
2022/04/08 02:14:38;;;;;;;6.18;5.55;;;10.40;99.90;;;;;;5074991;28;20224;-64
2022/04/08 02:17:06;;;;;;;8.15;5.55;;;10.40;99.90;;;;;;5075905;28;20227;-64
2022/04/08 02:19:33;;;;;;;5.60;3.40;;;10.40;99.90;;;;;;5074640;28;20228;-64
2022/04/08 02:22:00;;;;;;;10.88;7.55;;;10.40;99.90;;;;;;5074132;28;20241;-64
2022/04/08 02:24:27;;;;;;;8.00;4.90;;;10.40;99.90;;;;;;5074111;28;20226;-64
2022/04/08 02:26:55;;;;;;;6.05;3.40;;;10.40;99.90;;;;;;5073449;28;20822;-64
2022/04/08 02:29:22;;;;;;;15.32;10.27;;;10.50;99.90;;;;;;5074285;28;20224;-65
2022/04/08 02:31:49;;;;;;;4.35;2.85;;;10.50;99.90;;;;;;5074099;28;20227;-64
2022/04/08 02:34:17;;;;;;;4.63;2.30;;;10.50;99.90;;;;;;5074456;28;20224;-65
2022/04/08 02:36:44;;;;;;;10.50;5.30;;;10.50;99.90;;;;;;5075163;28;20220;-65
2022/04/08 02:39:11;;;;;;;8.65;7.13;;;10.50;99.90;;;;;;5073407;28;20224;-64
2022/04/08 02:41:38;;;;;;;6.40;3.85;;;10.50;99.90;;;;;;5075256;28;20224;-64
2022/04/08 02:44:06;;;;;;;11.23;8.45;;;10.50;99.90;;;;;;5073561;28;20224;-65
2022/04/08 02:46:32;;;;;;;7.55;4.60;;;10.50;99.90;;;;;;5065969;28;20230;-65
2022/04/08 02:48:59;;;;;;;5.20;4.22;;;10.50;99.90;;;;;;5074825;28;20216;-64
2022/04/08 02:51:28;;;;;;;4.50;3.22;;;10.50;99.80;;;;;;5075499;28;20232;-63
2022/04/08 02:53:55;;;;;;;7.55;4.78;;;10.50;99.70;;;;;;5070713;28;20243;-65
2022/04/08 02:56:22;;;;;;;15.77;10.23;;;10.50;99.70;;;;;;5075134;28;20228;-65
2022/04/08 02:58:49;;;;;;;29.27;16.27;;;10.50;99.80;;;;;;5074690;28;20220;-68
2022/04/08 03:01:16;;;;;;;12.13;8.45;;;10.50;99.60;;;;;;5070840;28;20687;-65
2022/04/08 03:03:43;;;;;;;6.97;4.68;;;10.50;99.20;;;;;;5072339;28;20230;-67
2022/04/08 03:06:10;;;;;;;12.25;8.63;;;10.50;99.30;;;;;;5075167;28;20231;-64
2022/04/08 03:08:38;;;;;;;8.35;5.72;;;10.50;99.80;;;;;;5074512;28;20656;-64
2022/04/08 03:11:05;;;;;;;4.05;3.55;;;10.60;99.70;;;;;;5073718;28;20224;-65
2022/04/08 03:13:32;;;;;;;20.98;16.33;;;10.60;99.40;;;;;;5074730;28;20232;-65
2022/04/08 03:15:59;;;;;;;10.50;8.07;;;10.60;99.60;;;;;;5074483;28;20220;-65
2022/04/08 03:18:26;;;;;;;7.15;4.65;;;10.60;99.70;;;;;;5074673;28;20242;-64
2022/04/08 03:20:56;;;;;;;4.97;3.67;;;10.70;99.70;;;;;;5074231;28;20227;-64
2022/04/08 03:23:22;;;;;;;7.70;5.20;;;10.70;99.40;;;;;;5074676;28;20701;-64
2022/04/08 03:25:50;;;;;;;9.07;7.18;;;10.70;99.50;;;;;;5074431;28;20216;-64
2022/04/08 03:28:17;;;;;;;3.03;2.70;;;10.70;99.40;;;;;;5074487;28;20216;-64
2022/04/08 03:30:45;;;;;;;16.85;10.68;;;10.70;99.20;;;;;;5074244;28;20239;-64
2022/04/08 03:33:12;;;;;;;18.90;12.93;;;10.70;99.00;;;;;;5074556;28;20239;-64
2022/04/08 03:35:39;;;;;;;25.27;18.40;;;10.70;99.10;;;;;;5074108;28;20220;-64
2022/04/08 03:38:06;;;;;;;14.45;7.93;;;10.70;99.20;;;;;;5073011;28;20231;-64
2022/04/08 03:40:35;;;;;;;14.68;9.52;;;10.70;99.10;;;;;;5074132;28;20224;-65
2022/04/08 03:43:03;;;;;;;16.67;11.73;;;10.70;99.10;;;;;;5073926;28;20224;-65
2022/04/08 03:45:30;;;;;;;21.42;13.77;;;10.80;99.10;;;;;;5062459;28;20221;-64
2022/04/08 03:47:57;;;;;;;15.88;11.88;;;10.80;99.30;;;;;;5073982;28;20220;-65
2022/04/08 03:50:24;;;;;;;10.23;8.88;;;10.70;99.80;;;;;;5074249;28;20220;-64
2022/04/08 03:52:51;;;;;;;10.18;7.90;;;10.80;99.90;;;;;;5073832;28;20262;-64
2022/04/08 03:55:18;;;;;;;11.82;8.20;;;10.80;99.90;;;;;;5069997;28;20236;-64
2022/04/08 03:57:44;;;;;;;10.13;6.93;;;10.80;99.90;;;;;;5073721;28;20482;-63
2022/04/08 04:00:14;;;;;;;7.20;4.30;;;10.70;99.90;;;;;;5074039;28;20804;-64
2022/04/08 04:02:40;;;;;;;9.93;5.30;;;10.70;99.90;;;;;;5073592;28;20227;-65
2022/04/08 04:05:10;;;;;;;7.80;6.30;;;10.70;99.90;;;;;;5073785;28;20224;-64
2022/04/08 04:07:38;;;;;;;6.78;5.43;;;10.70;99.90;;;;;;5072846;28;20220;-64
2022/04/08 04:10:05;;;;;;;3.25;2.00;;;10.70;99.90;;;;;;5073014;28;20669;-64
2022/04/08 04:12:33;;;;;;;3.00;2.67;;;10.60;99.90;;;;;;5072385;28;20245;-64
2022/04/08 04:14:59;;;;;;;7.28;5.15;;;10.60;99.90;;;;;;5073449;28;20220;-64
2022/04/08 04:17:28;;;;;;;11.07;8.07;;;10.60;99.90;;;;;;5073484;28;20334;-64
2022/04/08 04:19:55;;;;;;;4.88;4.35;;;10.50;99.90;;;;;;5073406;28;20232;-64
2022/04/08 04:22:21;;;;;;;10.60;7.05;;;10.50;99.90;;;;;;5073709;28;20236;-64
2022/04/08 04:24:48;;;;;;;9.00;5.22;;;10.40;99.90;;;;;;5073390;28;20679;-64
2022/04/08 04:27:15;;;;;;;20.67;12.68;;;10.30;99.90;;;;;;5073584;28;20287;-63
2022/04/08 04:29:42;;;;;;;2.85;2.55;;;10.20;99.90;;;;;;5073260;28;20232;-64
2022/04/08 04:32:10;;;;;;;6.00;4.03;;;10.20;99.90;;;;;;5073394;28;20246;-64
2022/04/08 04:34:38;;;;;;;5.50;3.00;;;10.10;99.90;;;;;;5073457;28;20228;-64
2022/04/08 04:37:08;;;;;;;3.70;2.42;;;10.10;99.90;;;;;;5072013;28;20565;-64
2022/04/08 04:39:35;;;;;;;11.23;8.13;;;10.00;99.90;;;;;;5063390;28;20239;-64
2022/04/08 04:42:02;;;;;;;18.45;11.65;;;10.00;99.70;;;;;;5072829;28;20329;-64
2022/04/08 04:44:29;;;;;;;3.22;2.17;;;9.90;99.90;;;;;;5068367;28;20223;-64
2022/04/08 04:46:56;;;;;;;3.33;2.42;;;9.90;99.90;;;;;;5070269;28;20677;-64
2022/04/08 04:49:23;;;;;;;6.45;3.88;;;9.90;99.90;;;;;;5073248;28;20235;-64
2022/04/08 04:51:52;;;;;;;3.88;2.63;;;9.90;99.90;;;;;;5072718;28;20250;-64
2022/04/08 04:54:19;;;;;;;7.70;5.15;;;9.80;99.90;;;;;;5073039;28;20234;-64
2022/04/08 04:56:46;;;;;;;2.22;2.00;;;9.80;99.90;;;;;;5072722;28;20228;-64
2022/04/08 04:59:13;;;;;;;27.40;16.70;;;9.80;99.90;;;;;;5073248;28;20230;-64
2022/04/08 05:01:40;;;;;;;5.65;4.80;;;9.70;99.90;;;;;;5071692;28;20232;-64
2022/04/08 05:04:07;;;;;;;8.68;6.70;;;9.70;99.90;;;;;;5071308;28;20223;-64
2022/04/08 05:06:34;;;;;;;12.57;6.20;;;9.70;99.90;;;;;;5072989;28;20247;-64
2022/04/08 05:09:05;;;;;;;7.82;7.10;;;9.70;99.90;;;;;;5078211;28;20223;-64
2022/04/08 05:11:32;;;;;;;2.30;1.55;;;9.70;99.90;;;;;;5093229;28;20316;-64
2022/04/08 05:14:01;;;;;;;15.43;10.18;;;9.50;99.90;;;;;;5092827;28;20232;-64
2022/04/08 05:16:29;;;;;;;8.00;6.35;;;9.60;99.90;;;;;;5093050;28;20219;-64
2022/04/08 05:18:55;;;;;;;5.85;5.22;;;9.60;99.90;;;;;;5092517;28;20230;-64
2022/04/08 05:21:22;;;;;;;9.05;6.30;;;9.60;99.90;;;;;;5093071;28;20240;-64
2022/04/08 05:23:49;;;;;;;3.17;2.13;;;9.50;99.90;;;;;;5092599;28;20215;-64
2022/04/08 05:26:18;;;;;;;7.50;4.95;;;9.50;99.90;;;;;;5083350;28;20586;-64
2022/04/08 05:28:45;;;;;;;6.95;4.65;;;9.50;99.90;;;;;;5071979;28;20224;-64
2022/04/08 05:31:12;;;;;;;14.30;9.93;;;9.60;99.90;;;;;;5072333;28;20223;-64
2022/04/08 05:33:39;;;;;;;17.40;11.82;;;9.60;99.90;;;;;;5072709;28;20295;-64
2022/04/08 05:36:06;;;;;;;15.20;9.13;;;9.60;99.90;;;;;;5072462;28;20219;-65
2022/04/08 05:38:33;;;;;;;11.57;7.47;;;9.60;99.90;;;;;;5072376;28;20212;-65
2022/04/08 05:41:00;;;;;;;9.13;6.88;;;9.70;99.90;;;;;;5072137;28;20227;-65
2022/04/08 05:43:28;;;;;;;6.72;4.78;;;9.70;99.90;;;;;;5063708;28;20230;-65
2022/04/08 05:45:55;;;;;;;5.90;4.43;;;9.70;99.90;;;;;;5071693;28;20724;-65
2022/04/08 05:48:22;;;;;;;3.80;3.08;;;9.70;99.90;;;;;;5072636;28;20224;-65
2022/04/08 05:50:48;;;;;;;3.00;2.05;;;9.70;99.90;;;;;;5072341;28;20228;-65
2022/04/08 05:53:15;;;;;;;5.85;4.20;;;9.70;99.90;;;;;;5072046;28;20220;-66
2022/04/08 05:55:42;;;;;;;5.47;4.10;;;9.80;99.90;;;;;;5072573;28;20235;-65
2022/04/08 05:58:09;;;;;;;3.40;3.00;;;9.70;99.90;;;;;;5071851;28;20226;-65
2022/04/08 06:00:37;;;;;;;6.30;2.40;;;9.80;99.90;;;;;;5072382;28;20228;-65
2022/04/08 06:03:04;;;;;;;3.38;2.85;;;9.70;99.90;;;;;;5052094;28;20224;-64
2022/04/08 06:05:31;;;;;;;7.40;3.83;;;9.80;99.90;;;;;;5052533;28;20568;-65
2022/04/08 06:07:58;;;;;;;29.15;17.50;;;9.80;99.90;;;;;;5070873;28;20231;-65
2022/04/08 06:10:26;;;;;;;14.98;10.25;;;9.80;99.90;;;;;;5072335;28;20220;-65
2022/04/08 06:12:54;;;;;;;15.55;11.20;;;9.90;99.90;;;;;;5071659;28;20263;-65
2022/04/08 06:15:22;;;;;;;6.28;4.85;;;9.90;99.90;;;;;;5072442;28;20536;-65
2022/04/08 06:17:50;;;;;;;10.30;6.60;;;9.80;99.90;;;;;;5072517;28;20556;-65
2022/04/08 06:20:19;;;;;;;8.35;5.60;;;9.80;99.90;;;;;;5071498;28;20225;-65
2022/04/08 06:22:47;;;;;;;9.25;5.18;;;9.90;99.90;;;;;;5072217;28;20224;-65
2022/04/08 06:25:16;;;;;;;8.85;7.30;;;9.80;99.90;;;;;;5071956;28;20299;-66
2022/04/08 06:27:44;;;;;;;9.05;5.43;;;9.90;99.90;;;;;;5072226;28;20844;-65
2022/04/08 06:30:14;;;;;;;5.95;4.35;;;9.90;99.90;;;;;;5071838;28;20222;-65
2022/04/08 06:32:42;;;;;;;3.17;2.05;;;9.90;99.90;;;;;;5072160;28;20703;-65
2022/04/08 06:35:13;;;;;;;4.72;3.33;;;9.90;99.90;;;;;;5071799;28;20223;-64
2022/04/08 06:37:41;;;;;;;10.85;8.38;;;9.90;99.90;;;;;;5072125;28;20223;-64
2022/04/08 06:40:09;;;;;;;3.78;2.10;;;9.90;99.90;;;;;;5072162;28;20224;-64
2022/04/08 06:42:37;;;;;;;8.65;3.92;;;9.90;99.90;;;;;;5075505;28;20237;-65
2022/04/08 06:45:05;;;;;;;8.82;5.95;;;10.00;99.90;;;;;;5075412;28;20215;-64
2022/04/08 06:47:32;;;;;;;5.55;3.65;;;9.90;99.90;;;;;;5075849;28;20246;-65
2022/04/08 06:49:59;;;;;;;2.08;1.88;;;9.80;99.90;;;;;;5075157;28;20216;-65
2022/04/08 06:52:27;;;;;;;9.15;3.72;;;9.70;99.90;;;;;;5075489;28;20220;-65
2022/04/08 06:54:54;;;;;;;7.00;4.05;;;9.50;99.90;;;;;;5075624;28;20231;-64
2022/04/08 06:57:21;;;;;;;3.28;1.38;;;9.40;99.90;;;;;;5058279;28;20221;-65
2022/04/08 06:59:47;;;;;;;7.40;3.70;;;9.20;99.90;;;;;;5055619;28;20243;-64
2022/04/08 07:02:14;;;;;;;5.15;3.80;;;9.10;99.90;;;;;;5054966;28;20225;-65
2022/04/08 07:04:41;;;;;;;4.10;2.50;;;9.00;99.90;;;;;;5055452;28;20221;-66
2022/04/08 07:07:08;;;;;;;3.28;1.60;;;8.80;99.90;;;;;;5055265;28;20596;-65
2022/04/08 07:09:36;;;;;;;3.25;2.38;;;8.70;99.90;;;;;;5055328;28;20224;-65
2022/04/08 07:12:03;;;;;;;4.15;2.65;;;8.50;99.90;;;;;;5054604;28;20244;-65
2022/04/08 07:14:30;;;;;;;4.20;1.90;;;8.40;99.90;;;;;;5055344;28;20221;-64
2022/04/08 07:16:57;;;;;;;8.07;5.80;;;8.40;99.90;;;;;;5055190;28;20224;-64
2022/04/08 07:19:24;;;;;;;9.07;4.90;;;8.30;99.90;;;;;;5054934;28;20228;-64
2022/04/08 07:21:51;;;;;;;3.67;2.30;;;8.30;99.90;;;;;;5055148;28;20221;-64
2022/04/08 07:24:18;;;;;;;6.05;2.53;;;8.40;99.90;;;;;;5054662;28;20220;-64
2022/04/08 07:26:47;;;;;;;4.13;2.67;;;8.40;99.90;;;;;;5054958;28;20230;-64
2022/04/08 07:29:14;;;;;;;11.15;7.22;;;8.40;99.90;;;;;;5054720;28;20240;-65
2022/04/08 07:31:41;;;;;;;5.05;3.53;;;8.40;99.90;;;;;;5054893;28;20667;-65
2022/04/08 07:34:08;;;;;;;10.23;3.45;;;8.50;99.90;;;;;;5054400;28;20216;-65
2022/04/08 07:36:34;;;;;;;8.20;3.15;;;8.60;99.90;;;;;;5054885;28;20221;-65
2022/04/08 07:39:01;;;;;;;6.88;2.30;;;8.70;99.90;;;;;;5054477;28;20225;-65
2022/04/08 07:41:28;;;;;;;8.43;4.82;;;8.70;99.90;;;;;;5054637;28;20224;-65
2022/04/08 07:43:56;;;;;;;5.88;3.85;;;8.80;99.90;;;;;;5069796;28;20216;-65
2022/04/08 07:46:23;;;;;;;8.65;3.63;;;8.90;99.90;;;;;;5074106;28;20228;-65
2022/04/08 07:48:50;;;;;;;4.45;3.17;;;8.90;99.90;;;;;;5074583;28;20273;-65
2022/04/08 07:51:17;;;;;;;4.55;2.45;;;9.00;99.90;;;;;;5074015;28;20606;-65
2022/04/08 07:53:43;;;;;;;10.82;6.00;;;9.00;99.90;;;;;;5073807;28;20216;-65
2022/04/08 07:56:10;;;;;;;5.22;3.10;;;9.10;99.90;;;;;;5066789;28;20217;-66
2022/04/08 07:58:37;;;;;;;9.13;6.40;;;9.10;99.90;;;;;;5070972;28;20223;-65
2022/04/08 08:01:05;;;;;;;4.38;3.15;;;9.10;99.90;;;;;;5073947;28;20221;-65
2022/04/08 08:03:34;;;;;;;3.17;1.92;;;9.20;99.90;;;;;;5074283;28;20220;-65
2022/04/08 08:06:03;;;;;;;3.72;1.95;;;9.20;99.90;;;;;;5074435;28;20224;-65
2022/04/08 08:08:30;;;;;;;8.07;4.15;;;9.30;99.90;;;;;;5073791;28;20215;-65
2022/04/08 08:10:56;;;;;;;7.20;2.78;;;9.40;99.90;;;;;;5073970;28;20224;-65
2022/04/08 08:13:23;;;;;;;16.52;5.55;;;9.50;99.90;;;;;;5073480;28;20250;-65
2022/04/08 08:15:50;;;;;;;7.03;3.00;;;9.50;99.90;;;;;;5074119;28;20224;-65
2022/04/08 08:18:21;;;;;;;7.15;2.70;;;9.60;99.90;;;;;;5073542;28;20716;-64
2022/04/08 08:20:49;;;;;;;3.03;2.30;;;9.70;99.90;;;;;;5073856;28;20667;-65
2022/04/08 08:23:15;;;;;;;4.63;2.88;;;9.70;99.90;;;;;;5073537;28;20224;-65
2022/04/08 08:25:44;;;;;;;12.48;5.40;;;9.80;99.90;;;;;;5072839;28;20709;-66
2022/04/08 08:28:11;;;;;;;4.57;3.17;;;9.90;99.90;;;;;;5066249;28;20217;-65
2022/04/08 08:30:38;;;;;;;9.40;4.50;;;10.10;99.90;;;;;;5052001;28;20224;-65
2022/04/08 08:33:06;;;;;;;5.13;2.88;;;10.20;99.80;;;;;;5052101;28;20270;-66
2022/04/08 08:35:35;;;;;;;8.95;4.80;;;10.20;98.20;;;;;;5051704;28;20217;-64
2022/04/08 08:38:02;;;;;;;14.40;6.80;;;10.20;98.10;;;;;;5051842;28;20225;-64
2022/04/08 08:40:32;;;;;;;12.45;4.68;;;10.30;97.70;;;;;;5051664;28;20240;-65
2022/04/08 08:43:00;;;;;;;9.15;4.03;;;10.30;97.40;;;;;;5060655;28;20224;-66
2022/04/08 08:45:32;;;;;;;10.45;3.13;;;10.40;96.90;;;;;;5073290;28;20608;-66
2022/04/08 08:48:01;;;;;;;10.80;4.82;;;10.50;97.00;;;;;;5073139;28;20274;-65
2022/04/08 08:50:29;;;;;;;7.05;2.88;;;10.60;96.40;;;;;;5072815;28;20248;-64
2022/04/08 08:52:58;;;;;;;11.82;3.65;;;10.60;95.90;;;;;;5073323;28;20216;-65
2022/04/08 08:55:26;;;;;;;10.25;4.00;;;10.80;95.80;;;;;;5072996;28;20231;-65
2022/04/08 08:57:55;;;;;;;5.43;2.30;;;10.80;94.60;;;;;;5073280;28;20223;-65
2022/04/08 09:00:23;;;;;;;5.60;2.30;;;10.70;94.10;;;;;;5072381;28;20224;-65
2022/04/08 09:02:51;;;;;;;5.90;2.58;;;10.70;93.70;;;;;;5073288;28;20318;-65
2022/04/08 09:05:20;;;;;;;4.70;2.55;;;10.80;93.90;;;;;;5072729;28;20232;-65
2022/04/08 09:07:55;;;;;;;6.22;3.10;;;10.80;94.00;;;;;;5073312;28;20220;-65
2022/04/08 09:10:27;;;;;;;5.40;1.75;;;10.80;93.90;;;;;;5072445;28;20258;-65
2022/04/08 09:12:55;;;;;;;6.30;2.00;;;10.90;94.00;;;;;;5073029;28;20542;-65
2022/04/08 09:15:22;;;;;;;4.13;1.90;;;11.00;94.00;;;;;;5072580;28;20228;-65
2022/04/08 09:17:49;;;;;;;6.20;3.90;;;11.10;93.90;;;;;;5072972;28;20234;-64
2022/04/08 09:20:15;;;;;;;6.97;2.97;;;11.10;93.30;;;;;;5072385;28;20655;-65
2022/04/08 09:22:44;;;;;;;7.03;2.80;;;11.10;92.00;;;;;;5073128;28;20226;-65
2022/04/08 09:25:12;;;;;;;5.70;2.67;;;11.10;92.10;;;;;;5072682;28;20234;-65
2022/04/08 09:27:41;;;;;;;6.50;2.45;;;11.10;92.40;;;;;;5072744;28;20211;-65
2022/04/08 09:30:09;;;;;;;5.50;1.95;;;11.20;92.70;;;;;;5072816;28;20258;-65
2022/04/08 09:32:36;;;;;;;8.30;6.05;;;11.20;93.10;;;;;;5072073;28;20653;-65
2022/04/08 09:35:04;;;;;;;6.50;2.90;;;11.20;93.20;;;;;;5072832;28;20227;-65
2022/04/08 09:37:31;;;;;;;9.00;5.25;;;11.20;93.50;;;;;;5071970;28;20228;-65
2022/04/08 09:40:00;;;;;;;5.18;2.97;;;11.30;93.40;;;;;;5072531;28;20682;-65
2022/04/08 09:42:43;;;;;;;7.35;2.78;;;11.20;92.40;;;;;;5071974;28;20289;-65
2022/04/08 09:45:10;;;;;;;4.47;2.60;;;11.30;92.30;;;;;;5072721;28;20231;-65
2022/04/08 09:47:38;;;;;;;4.60;2.20;;;11.30;91.90;;;;;;5071946;28;20247;-65
2022/04/08 09:50:05;;;;;;;7.63;2.65;;;11.40;92.10;;;;;;5058992;28;20220;-65
2022/04/08 09:52:33;;;;;;;3.28;1.75;;;11.40;91.90;;;;;;5051841;28;20228;-65
2022/04/08 09:55:03;;;;;;;7.75;2.25;;;11.30;91.30;;;;;;5052559;28;20224;-64
2022/04/08 09:57:34;;;;;;;6.80;3.40;;;11.40;90.60;;;;;;5051822;28;20228;-65
2022/04/08 10:00:04;;;;;;;7.68;3.13;;;11.40;90.40;;;;;;5052399;28;20675;-66
2022/04/08 10:02:34;;;;;;;5.55;2.22;;;11.30;90.20;;;;;;5051522;28;20232;-65
2022/04/08 10:05:02;;;;;;;9.15;4.82;;;11.40;89.90;;;;;;5052500;28;20554;-65
2022/04/08 10:07:30;;;;;;;7.45;2.50;;;11.40;90.00;;;;;;5052272;28;20239;-65
2022/04/08 10:10:03;;;;;;;7.32;3.30;;;11.40;89.00;;;;;;5052524;28;20224;-65
2022/04/08 10:12:44;;;;;;;23.23;12.75;;;11.40;89.10;;;;;;5051758;28;20235;-65
2022/04/08 10:15:25;;;;;;;5.70;3.08;;;11.30;89.70;;;;;;5052976;28;20231;-65
2022/04/08 10:17:57;;;;;;;6.28;3.50;;;11.40;90.00;;;;;;5056658;28;20239;-65
2022/04/08 10:20:25;;;;;;;9.93;8.75;;;11.40;88.10;;;;;;5056040;28;20224;-65
2022/04/08 10:22:54;;;;;;;5.22;2.42;;;11.30;88.20;;;;;;5056309;28;20220;-65
2022/04/08 10:25:26;;;;;;;16.25;12.02;;;11.30;88.40;;;;;;5055578;28;20231;-65
2022/04/08 10:27:59;;;;;;;12.30;9.13;;;11.30;88.70;;;;;;5056352;28;20286;-65
2022/04/08 10:30:28;;;;;;;8.52;7.22;;;11.40;89.50;;;;;;5055700;28;20212;-65
2022/04/08 10:33:00;;;;;;;10.32;5.07;;;11.40;89.50;;;;;;5055960;28;20231;-65
2022/04/08 10:35:27;;;;;;;5.05;3.38;;;11.40;88.80;;;;;;5055678;28;20246;-65
2022/04/08 10:37:59;;;;;;;9.65;6.22;;;11.50;88.80;;;;;;5056021;28;20216;-65
2022/04/08 10:40:33;;;;;;;5.38;2.80;;;11.70;88.80;;;;;;5055256;28;20231;-65
2022/04/08 10:43:02;;;;;;;6.15;4.28;;;11.90;89.30;;;;;;5062937;28;20226;-65
2022/04/08 10:45:30;;;;;;;2.20;2.00;;;11.90;88.40;;;;;;5075588;28;20216;-65
2022/04/08 10:48:01;;;;;;;9.43;6.50;;;12.00;86.70;;;;;;5075641;28;20224;-63
2022/04/08 10:50:30;;;;;;;16.63;13.63;;;12.00;85.80;;;;;;5058474;28;20217;-64
2022/04/08 10:53:07;;;;;;;12.23;9.65;;;12.10;85.80;;;;;;5055762;28;20216;-64
2022/04/08 10:55:46;;;;;;;17.15;11.95;;;12.20;85.00;;;;;;5055423;28;20301;-65
2022/04/08 10:58:15;;;;;;;10.70;8.88;;;12.30;83.80;;;;;;5055043;28;20228;-64
2022/04/08 11:00:44;;;;;;;7.80;7.03;;;12.30;82.90;;;;;;5055429;28;20228;-63
2022/04/08 11:03:11;;;;;;;8.43;5.05;;;12.30;82.30;;;;;;5055012;28;20213;-64
2022/04/08 11:05:39;;;;;;;5.38;3.92;;;12.30;81.70;;;;;;5055367;28;20682;-63
2022/04/08 11:08:07;;;;;;;6.97;4.90;;;12.30;82.30;;;;;;5055536;28;20225;-64
2022/04/08 11:10:34;;;;;;;19.17;16.58;;;12.30;83.50;;;;;;5054879;28;20366;-64
2022/04/08 11:13:01;;;;;;;7.22;4.25;;;12.30;84.10;;;;;;5055041;28;20690;-64
2022/04/08 11:15:30;;;;;;;7.35;5.22;;;12.20;85.10;;;;;;5054739;28;20232;-64
2022/04/08 11:18:00;;;;;;;14.38;9.13;;;12.20;85.80;;;;;;5055344;28;20221;-64
2022/04/08 11:20:28;;;;;;;5.95;2.95;;;12.20;87.20;;;;;;5054607;28;20311;-64
2022/04/08 11:22:56;;;;;;;8.73;7.03;;;12.20;86.30;;;;;;5055196;28;20232;-65
2022/04/08 11:25:28;;;;;;;4.20;2.72;;;12.30;86.00;;;;;;5054721;28;20232;-65
2022/04/08 11:28:02;;;;;;;10.25;5.10;;;12.30;85.90;;;;;;5068253;28;20570;-65
2022/04/08 11:30:30;;;;;;;8.00;5.05;;;12.30;85.30;;;;;;5074292;28;20310;-64
2022/04/08 11:32:59;;;;;;;14.93;12.70;;;12.30;85.00;;;;;;5074826;28;20215;-64
2022/04/08 11:35:29;;;;;;;11.73;9.50;;;12.30;85.90;;;;;;5057001;28;20220;-65
2022/04/08 11:37:56;;;;;;;8.25;2.95;;;12.30;87.00;;;;;;5068974;28;20223;-65
2022/04/08 11:40:23;;;;;;;3.10;2.10;;;12.20;88.50;;;;;;5072495;28;20227;-64
2022/04/08 11:42:49;;;;;;;5.15;4.03;;;12.10;88.60;;;;;;5073550;28;20228;-65
2022/04/08 11:45:17;;;;;;;4.25;2.10;;;12.20;89.20;;;;;;5062635;28;20239;-65
2022/04/08 11:47:49;;;;;;;2.75;2.35;;;12.30;89.00;;;;;;5069270;28;20235;-66
2022/04/08 11:50:24;;;;;;;4.20;3.25;;;12.30;88.40;;;;;;5069542;28;20716;-66
2022/04/08 11:52:54;;;;;;;2.63;2.08;;;12.40;87.90;;;;;;5074549;28;20216;-65
2022/04/08 11:55:25;;;;;;;2.85;1.77;;;12.40;87.60;;;;;;5074056;28;20224;-64
2022/04/08 11:57:52;;;;;;;15.10;9.00;;;12.50;86.90;;;;;;5074278;28;20286;-64
2022/04/08 12:00:25;;;;;;;16.52;12.27;;;12.40;84.00;;;;;;5073334;28;20220;-64
2022/04/08 12:02:52;;;;;;;15.13;9.48;;;12.40;83.30;;;;;;5074137;28;20307;-63
2022/04/08 12:05:24;;;;;;;7.03;5.32;;;12.40;82.50;;;;;;5073892;28;20220;-64
2022/04/08 12:07:53;;;;;;;5.13;2.88;;;12.50;82.20;;;;;;5074465;28;20311;-64
2022/04/08 12:10:22;;;;;;;6.50;4.00;;;12.60;81.30;;;;;;5073528;28;20277;-65
2022/04/08 12:12:48;;;;;;;16.42;8.50;;;12.50;79.50;;;;;;5056120;28;20225;-65
2022/04/08 12:15:16;;;;;;;8.68;5.88;;;12.60;80.00;;;;;;5053738;28;20235;-64
2022/04/08 12:17:44;;;;;;;5.15;3.90;;;12.60;79.70;;;;;;5054052;28;20235;-64
2022/04/08 12:20:14;;;;;;;3.20;2.50;;;12.70;79.90;;;;;;5054040;28;20294;-65
2022/04/08 12:22:45;;;;;;;9.90;7.97;;;12.80;80.50;;;;;;5053705;28;20235;-65
2022/04/08 12:25:14;;;;;;;7.25;4.63;;;12.80;80.90;;;;;;5053761;28;20225;-65
2022/04/08 12:27:41;;;;;;;5.75;3.50;;;12.80;80.80;;;;;;5053363;28;20224;-64
2022/04/08 12:30:09;;;;;;;27.30;20.75;;;12.90;81.00;;;;;;5053942;28;20224;-65
2022/04/08 12:32:38;;;;;;;21.98;19.35;;;12.90;81.50;;;;;;5052939;28;20585;-65
2022/04/08 12:35:08;;;;;;;4.80;3.25;;;13.00;81.20;;;;;;5088366;28;20664;-64
2022/04/08 12:37:35;;;;;;;4.72;3.03;;;13.00;77.90;;;;;;5093192;28;20292;-65
2022/04/08 12:40:05;;;;;;;10.13;5.70;;;12.90;73.90;;;;;;5093758;28;20716;-65
2022/04/08 12:42:35;;;;;;;22.15;18.05;;;12.90;74.60;;;;;;5089499;28;20220;-66
2022/04/08 12:45:02;;;;;;;7.32;6.20;;;12.90;74.70;;;;;;5073624;28;20682;-64
2022/04/08 12:47:28;;;;;;;19.60;15.88;;;13.00;75.10;;;;;;5073093;28;20678;-65
2022/04/08 12:49:55;;;;;;;13.68;10.80;;;13.00;75.70;;;;;;5073312;28;20220;-65